Time;durP1;ratioP1;P1;durP2;ratioP2;P2;SDS_P1;SDS_P2;PMS_P1;PMS_P2;Temp;Humidity;BMP_temperature;BMP_pressure;BME280_temperature;BME280_humidity;BME280_pressure;Samples;Min_cycle;Max_cycle;Signal;HPM_P1;HPM_P2
2022/05/01 00:01:17;;;;;;;;;6.67;6.67;;;;;15.60;35.48;102124.16;5079283;28;45337;-89
2022/05/01 00:03:42;;;;;;;;;6.00;5.00;;;;;15.51;35.73;102107.56;5078224;27;45704;-89
2022/05/01 00:06:09;;;;;;;;;4.33;4.33;;;;;15.63;35.95;102131.22;5079104;27;45456;-88
2022/05/01 00:08:40;;;;;;;;;6.00;6.00;;;;;15.74;36.12;102153.16;5078608;27;45339;-88
2022/05/01 00:11:08;;;;;;;;;7.00;4.00;;;;;15.71;36.04;102153.31;5078898;28;45266;-88
2022/05/01 00:13:33;;;;;;;;;7.33;6.00;;;;;15.57;35.90;102126.97;5078623;27;46162;-88
2022/05/01 00:15:59;;;;;;;;;4.33;4.33;;;;;15.68;35.99;102144.44;5077421;27;45360;-88
2022/05/01 00:18:24;;;;;;;;;5.00;5.00;;;;;15.45;36.02;102105.13;5078212;27;45481;-88
2022/05/01 00:20:49;;;;;;;;;6.67;5.67;;;;;15.65;36.06;102147.28;5078522;27;45577;-88
2022/05/01 00:23:15;;;;;;;;;6.00;5.67;;;;;15.61;36.03;102142.00;5078318;27;46248;-88
2022/05/01 00:25:42;;;;;;;;;5.00;5.00;;;;;15.58;36.38;102138.59;5078192;27;45450;-88
2022/05/01 00:28:12;;;;;;;;;9.33;8.67;;;;;15.57;36.32;102147.63;5078585;28;45500;-89
2022/05/01 00:30:39;;;;;;;;;5.33;5.33;;;;;15.44;36.15;102117.69;5078461;28;45404;-88
2022/05/01 00:38:34;;;;;;;;;6.00;4.33;;;;;15.25;36.52;102095.22;5078937;27;45410;-88
2022/05/01 00:41:00;;;;;;;;;7.67;5.67;;;;;15.05;36.42;102072.72;5078999;27;45351;-89
2022/05/01 00:43:25;;;;;;;;;5.00;4.67;;;;;15.41;36.62;102136.63;5078309;27;46287;-88
2022/05/01 00:45:51;;;;;;;;;6.67;6.00;;;;;15.29;36.39;102115.63;5077636;28;45341;-88
2022/05/01 00:48:16;;;;;;;;;8.00;6.67;;;;;15.17;36.70;102100.88;5078347;27;45350;-88
2022/05/01 00:50:43;;;;;;;;;8.33;6.67;;;;;15.15;36.78;102097.41;5077026;28;45265;-88
2022/05/01 00:53:09;;;;;;;;;8.67;6.33;;;;;15.35;36.89;102131.50;5088263;27;45909;-89
2022/05/01 00:55:36;;;;;;;;;9.00;6.00;;;;;15.32;36.80;102132.50;5098157;27;45341;-88
2022/05/01 00:58:04;;;;;;;;;7.33;5.33;;;;;15.03;37.02;102073.72;5098288;27;45473;-88
2022/05/01 01:00:29;;;;;;;;;8.00;5.67;;;;;15.22;37.07;102112.34;5098450;27;45448;-88
2022/05/01 01:02:55;;;;;;;;;5.00;5.00;;;;;15.28;36.57;102113.88;5079598;27;45879;-88
2022/05/01 01:05:20;;;;;;;;;12.33;8.00;;;;;15.25;37.05;102119.41;5098525;27;45415;-88
2022/05/01 01:07:46;;;;;;;;;6.00;4.00;;;;;15.19;37.15;102117.81;5098089;27;45634;-88
2022/05/01 01:10:12;;;;;;;;;7.00;7.00;;;;;15.17;37.25;102114.31;5098945;27;45428;-88
2022/05/01 01:12:56;;;;;;;;;8.00;7.67;;;;;14.95;37.36;102087.47;5097827;27;45373;-89
2022/05/01 01:15:23;;;;;;;;;6.00;6.00;;;;;14.64;37.45;102045.78;5097943;27;45448;-89
2022/05/01 01:17:52;;;;;;;;;7.00;7.00;;;;;14.91;37.46;102085.84;5079518;27;45397;-89
2022/05/01 01:20:28;;;;;;;;;5.67;5.00;;;;;15.06;37.50;102121.97;5098266;27;45517;-89
2022/05/01 01:22:57;;;;;;;;;8.33;7.00;;;;;15.06;37.71;102125.50;5097721;27;46188;-88
2022/05/01 01:25:29;;;;;;;;;5.00;5.00;;;;;15.02;37.53;102123.88;5098054;27;45380;-89
2022/05/01 01:28:00;;;;;;;;;8.67;7.33;;;;;14.71;37.76;102079.47;5097604;27;45595;-89
2022/05/01 01:33:10;;;;;;;;;8.33;6.33;;;;;14.66;38.09;102070.75;5097922;27;45251;-88
2022/05/01 01:35:37;;;;;;;;;8.67;7.33;;;;;14.90;38.05;102111.81;5097855;27;45267;-89
2022/05/01 01:38:03;;;;;;;;;11.67;9.67;;;;;14.84;38.07;102109.38;5079698;27;45403;-89
2022/05/01 01:40:39;;;;;;;;;10.00;8.33;;;;;14.56;38.20;102066.66;5079719;27;45387;-88
2022/05/01 01:43:06;;;;;;;;;7.33;5.33;;;;;14.27;38.26;102020.34;5079451;27;47209;-89
2022/05/01 01:45:32;;;;;;;;;8.33;8.00;;;;;14.81;38.23;102117.56;5097485;27;45333;-89
2022/05/01 01:48:15;;;;;;;;;8.33;7.67;;;;;14.70;38.31;102104.56;5097654;27;45383;-88
2022/05/01 01:50:41;;;;;;;;;5.00;5.00;;;;;14.53;38.67;102072.97;5098007;27;45415;-89
2022/05/01 01:53:07;;;;;;;;;8.67;8.67;;;;;14.72;38.70;102109.88;5097307;27;46635;-89
2022/05/01 01:55:33;;;;;;;;;7.67;7.00;;;;;14.68;38.70;102108.22;5078885;27;45358;-88
2022/05/01 01:57:59;;;;;;;;;9.67;8.33;;;;;14.51;38.72;102082.03;5096806;27;46130;-89
2022/05/01 02:00:25;;;;;;;;;7.67;7.67;;;;;14.67;38.89;102115.41;5097730;27;45523;-89
2022/05/01 02:03:01;;;;;;;;;7.33;7.33;;;;;14.62;38.97;102101.31;5097174;27;46280;-88
2022/05/01 02:05:27;;;;;;;;;12.00;10.67;;;;;14.33;39.18;102064.84;5079345;27;45389;-89
2022/05/01 02:07:53;;;;;;;;;7.33;7.33;;;;;14.46;38.66;102079.53;5097240;27;45380;-88
2022/05/01 02:10:19;;;;;;;;;6.00;6.00;;;;;14.42;39.11;102077.00;5097829;27;45346;-88
2022/05/01 02:12:44;;;;;;;;;6.33;6.33;;;;;14.56;39.23;102097.06;5096584;27;45801;-89
2022/05/01 02:15:09;;;;;;;;;13.00;9.67;;;;;14.13;39.47;102031.59;5097299;27;45450;-89
2022/05/01 02:17:35;;;;;;;;;12.33;10.67;;;;;14.50;39.33;102096.38;5078648;27;45388;-89
2022/05/01 02:20:01;;;;;;;;;8.33;6.67;;;;;14.25;39.44;102066.94;5097598;27;45400;-89
2022/05/01 02:22:26;;;;;;;;;9.00;7.67;;;;;14.45;39.48;102098.38;5078848;27;47198;-88
2022/05/01 02:24:54;;;;;;;;;8.33;8.33;;;;;14.07;39.51;102041.69;5096820;27;45408;-89
2022/05/01 02:27:20;;;;;;;;;10.33;8.33;;;;;14.09;39.49;102051.44;5097139;27;45303;-89
2022/05/01 02:29:45;;;;;;;;;9.67;8.67;;;;;14.40;39.90;102094.97;5078742;27;45404;-89
2022/05/01 02:32:10;;;;;;;;;13.33;7.33;;;;;14.22;39.64;102067.94;5078678;27;48399;-89
2022/05/01 02:34:36;;;;;;;;;7.00;5.33;;;;;13.89;39.93;102006.59;5096897;27;45294;-89
2022/05/01 02:37:01;;;;;;;;;9.33;9.33;;;;;14.36;39.57;102097.78;5096993;27;45365;-89
2022/05/01 02:39:26;;;;;;;;;12.00;10.33;;;;;14.14;39.58;102064.63;5098077;27;45375;-88
2022/05/01 02:41:52;;;;;;;;;9.33;7.67;;;;;14.29;39.87;102085.53;5099750;27;52411;-89
2022/05/01 02:44:17;;;;;;;;;8.00;7.67;;;;;14.27;40.25;102090.06;5100553;27;45309;-89
2022/05/01 02:46:42;;;;;;;;;7.33;7.33;;;;;13.76;40.04;102007.97;5100585;27;45306;-88
2022/05/01 02:49:08;;;;;;;;;11.67;11.33;;;;;13.94;40.14;102033.22;5100432;27;45536;-89
2022/05/01 02:51:34;;;;;;;;;12.33;11.00;;;;;14.23;40.09;102084.88;5100277;27;45652;-88
2022/05/01 02:54:02;;;;;;;;;12.00;9.67;;;;;14.21;40.32;102082.28;5100162;27;45456;-89
2022/05/01 02:56:27;;;;;;;;;9.67;9.67;;;;;13.91;40.32;102028.00;5099755;27;45490;-88
2022/05/01 02:58:52;;;;;;;;;15.67;10.67;;;;;14.19;40.59;102076.09;5100495;27;45584;-88
2022/05/01 03:01:18;;;;;;;;;12.33;9.00;;;;;14.09;40.63;102056.81;5100262;27;45473;-89
2022/05/01 03:03:43;;;;;;;;;10.00;9.00;;;;;14.02;40.56;102043.66;5100084;27;45454;-89
2022/05/01 03:06:09;;;;;;;;;7.67;7.33;;;;;13.99;40.61;102043.78;5100231;27;45360;-89
2022/05/01 03:08:34;;;;;;;;;11.33;11.33;;;;;13.73;41.03;102008.09;5100379;27;45468;-89
2022/05/01 03:11:01;;;;;;;;;8.00;6.33;;;;;13.83;41.07;102036.28;5099812;27;45566;-89
2022/05/01 03:13:27;;;;;;;;;10.00;10.00;;;;;13.59;41.21;101994.34;5100084;27;45361;-89
2022/05/01 03:15:52;;;;;;;;;7.67;6.67;;;;;13.93;41.06;102052.94;5099966;27;45343;-88
2022/05/01 03:23:46;;;;;;;;;9.00;9.00;;;;;13.82;40.93;102033.69;5099619;27;45387;-88
2022/05/01 03:26:12;;;;;;;;;12.33;9.00;;;;;13.67;41.34;102006.53;5081246;27;45490;-89
2022/05/01 03:28:39;;;;;;;;;10.33;10.33;;;;;13.93;40.94;102063.66;5100009;27;45449;-89
2022/05/01 03:31:09;;;;;;;;;14.00;10.00;;;;;13.91;41.36;102052.13;5099692;27;46241;-89
2022/05/01 03:33:35;;;;;;;;;11.00;10.00;;;;;13.51;41.65;101989.25;5099494;27;45323;-89
2022/05/01 03:36:00;;;;;;;;;11.33;9.33;;;;;13.38;41.52;101966.53;5081419;27;45436;-88
2022/05/01 03:38:25;;;;;;;;;12.00;11.00;;;;;13.89;41.60;102052.16;5081739;27;45427;-88
2022/05/01 03:40:51;;;;;;;;;13.33;10.33;;;;;13.68;41.80;102028.81;5099178;27;46058;-88
2022/05/01 03:43:17;;;;;;;;;15.67;10.33;;;;;13.67;41.72;102027.97;5099595;27;45222;-88
2022/05/01 03:45:42;;;;;;;;;8.00;6.67;;;;;13.82;41.80;102055.13;5099555;27;45514;-89
2022/05/01 03:48:08;;;;;;;;;11.67;11.67;;;;;13.41;41.82;101993.19;5100693;27;45574;-88
2022/05/01 03:50:34;;;;;;;;;10.33;10.00;;;;;13.74;42.09;102047.34;5099239;27;45845;-88
2022/05/01 03:52:59;;;;;;;;;14.00;11.33;;;;;13.68;41.85;102036.88;5077205;27;45606;-88
2022/05/01 03:55:25;;;;;;;;;14.33;12.00;;;;;13.79;42.01;102053.44;5078866;27;45577;-89
2022/05/01 03:57:50;;;;;;;;;10.67;9.33;;;;;13.77;41.92;102054.44;5078854;28;45505;-89
2022/05/01 04:00:18;;;;;;;;;10.00;9.00;;;;;13.26;42.11;101979.38;5078887;28;45606;-89
2022/05/01 04:02:45;;;;;;;;;11.00;7.67;;;;;13.73;41.98;102051.84;5078966;27;45446;-89
2022/05/01 04:05:14;;;;;;;;;11.00;8.33;;;;;12.73;42.26;101884.88;5078987;27;45452;-88
2022/05/01 04:07:40;;;;;;;;;7.33;7.33;;;;;13.52;42.44;102025.81;5077598;28;45361;-88
2022/05/01 04:10:07;;;;;;;;;13.00;10.33;;;;;13.68;42.40;102051.13;5078425;27;45488;-89
2022/05/01 04:12:43;;;;;;;;;12.00;10.00;;;;;13.58;42.30;102047.03;5077813;27;45388;-89
2022/05/01 04:15:11;;;;;;;;;12.00;11.00;;;;;13.64;42.22;102049.47;5078777;28;45509;-89
2022/05/01 04:17:40;;;;;;;;;11.00;10.33;;;;;13.58;42.42;102036.31;5078650;27;45498;-89
2022/05/01 04:20:08;;;;;;;;;15.33;13.00;;;;;13.64;42.77;102040.56;5078548;27;46054;-89
2022/05/01 04:22:47;;;;;;;;;15.33;10.67;;;;;13.48;42.51;102022.34;5078163;27;45440;-88
2022/05/01 04:25:16;;;;;;;;;6.33;6.33;;;;;13.60;42.47;102042.50;5076853;27;45404;-88
2022/05/01 04:27:43;;;;;;;;;12.67;12.67;;;;;13.59;42.52;102039.88;5078614;28;45330;-89
2022/05/01 04:30:11;;;;;;;;;13.33;12.00;;;;;13.03;42.74;101956.06;5078244;27;45336;-89
2022/05/01 04:32:50;;;;;;;;;15.67;12.00;;;;;13.52;42.64;102042.75;5076909;27;45345;-89
2022/05/01 04:35:28;;;;;;;;;11.00;10.67;;;;;13.47;43.18;102046.53;5078519;28;45439;-89
2022/05/01 04:38:01;;;;;;;;;12.33;11.67;;;;;13.35;42.98;102018.38;5076749;28;46366;-89
2022/05/01 04:40:31;;;;;;;;;15.00;13.00;;;;;13.35;43.22;102034.44;5078051;27;46153;-89
2022/05/01 04:43:08;;;;;;;;;14.33;12.33;;;;;13.40;42.90;102036.97;5078094;28;45322;-89
2022/05/01 04:45:34;;;;;;;;;10.67;10.67;;;;;13.47;42.98;102049.22;5078124;27;45467;-88
2022/05/01 04:48:04;;;;;;;;;15.67;13.33;;;;;13.46;43.27;102050.13;5078546;27;45514;-89
2022/05/01 04:50:29;;;;;;;;;13.33;12.33;;;;;12.96;43.15;101965.25;5077794;27;45358;-89
2022/05/01 04:52:55;;;;;;;;;12.00;12.00;;;;;13.34;43.36;102035.34;5085877;27;45761;-89
2022/05/01 04:55:21;;;;;;;;;14.00;13.33;;;;;13.39;43.52;102044.13;5098573;27;45320;-89
2022/05/01 04:57:46;;;;;;;;;17.00;14.00;;;;;13.45;43.54;102056.44;5098264;27;45877;-89
2022/05/01 05:00:18;;;;;;;;;11.00;10.00;;;;;13.46;43.33;102058.16;5098542;27;45353;-89
2022/05/01 05:02:46;;;;;;;;;13.00;11.33;;;;;13.46;43.19;102061.75;5097491;27;45388;-89
2022/05/01 05:05:12;;;;;;;;;14.00;11.00;;;;;13.46;43.63;102066.19;5098279;27;45408;-89
2022/05/01 05:07:38;;;;;;;;;14.00;12.67;;;;;13.42;43.57;102065.44;5097972;27;45561;-89
2022/05/01 05:10:05;;;;;;;;;13.00;11.00;;;;;13.33;43.68;102051.50;5098216;27;45605;-89
2022/05/01 05:12:32;;;;;;;;;12.67;10.33;;;;;13.42;43.76;102073.47;5079364;27;45518;-89
2022/05/01 05:14:59;;;;;;;;;10.00;10.00;;;;;13.17;43.76;102027.88;5098366;27;45404;-89
2022/05/01 05:17:25;;;;;;;;;11.67;10.67;;;;;13.25;44.01;102041.91;5098457;27;45481;-89
2022/05/01 05:19:51;;;;;;;;;12.00;9.67;;;;;12.33;43.92;101887.09;5097984;27;45341;-89
2022/05/01 05:22:16;;;;;;;;;8.67;8.67;;;;;13.44;43.74;102068.09;5097875;27;45498;-89
2022/05/01 05:24:43;;;;;;;;;10.33;9.00;;;;;13.13;43.96;102028.91;5097869;27;45225;-89
2022/05/01 05:27:08;;;;;;;;;15.67;11.33;;;;;13.44;44.15;102074.31;5098332;27;45441;-89
2022/05/01 05:29:34;;;;;;;;;10.67;8.33;;;;;13.41;44.29;102076.19;5097640;27;46247;-89
2022/05/01 05:31:59;;;;;;;;;12.00;12.00;;;;;13.05;44.23;102013.09;5098155;27;45499;-88
2022/05/01 05:34:25;;;;;;;;;11.33;10.67;;;;;13.36;44.24;102068.31;5097853;27;45453;-88
2022/05/01 05:36:51;;;;;;;;;12.33;11.00;;;;;13.52;44.38;102087.44;5097838;27;45400;-89
2022/05/01 05:39:17;;;;;;;;;8.67;8.67;;;;;13.38;44.26;102058.44;5097732;27;45456;-88
2022/05/01 05:41:42;;;;;;;;;10.67;10.67;;;;;13.51;44.16;102069.63;5097449;27;45461;-89
2022/05/01 05:44:08;;;;;;;;;13.00;11.33;;;;;13.57;43.87;102096.16;5098110;27;45522;-88
2022/05/01 05:46:33;;;;;;;;;15.67;13.00;;;;;13.57;44.07;102071.19;5097714;27;45396;-88
2022/05/01 05:48:59;;;;;;;;;11.00;10.67;;;;;12.98;44.06;101965.19;5097783;27;46371;-89
2022/05/01 05:51:25;;;;;;;;;15.00;12.67;;;;;13.67;44.09;102077.97;5097642;27;45448;-89
2022/05/01 05:53:51;;;;;;;;;13.00;11.33;;;;;13.70;43.59;102069.84;5097428;27;45497;-89
2022/05/01 05:56:18;;;;;;;;;15.33;12.00;;;;;13.73;43.80;102069.72;5097803;27;45339;-89
2022/05/01 05:58:43;;;;;;;;;14.67;12.33;;;;;13.81;43.77;102064.94;5097180;27;46814;-89
2022/05/01 06:01:10;;;;;;;;;19.33;16.00;;;;;13.37;43.63;101984.41;5098834;27;45280;-89
2022/05/01 06:03:35;;;;;;;;;14.67;12.00;;;;;13.94;43.09;102062.72;5097516;27;45293;-89
2022/05/01 06:06:01;;;;;;;;;17.67;13.00;;;;;13.96;43.13;102066.22;5097698;27;45468;-89
2022/05/01 06:08:26;;;;;;;;;17.00;13.33;;;;;13.75;43.33;102019.63;5097257;27;46138;-89
2022/05/01 06:10:51;;;;;;;;;13.67;12.67;;;;;13.71;43.54;102008.13;5096883;27;45391;-89
2022/05/01 06:13:17;;;;;;;;;11.33;11.00;;;;;13.99;43.28;102047.34;5097688;27;45483;-89
2022/05/01 06:15:43;;;;;;;;;6.00;6.00;;;;;14.23;43.19;102074.16;5100042;27;45421;-89
2022/05/01 06:18:10;;;;;;;;;17.67;13.00;;;;;13.97;43.43;102018.84;5101270;27;46171;-89
2022/05/01 06:20:36;;;;;;;;;12.67;10.67;;;;;14.19;43.31;102040.34;5100788;27;45352;-89
2022/05/01 06:23:01;;;;;;;;;16.00;14.67;;;;;14.32;42.63;102049.66;5101204;27;45192;-89
2022/05/01 06:25:26;;;;;;;;;16.67;15.00;;;;;14.48;42.59;102068.75;5101747;27;45467;-89
2022/05/01 06:27:52;;;;;;;;;15.00;14.67;;;;;14.38;42.69;102048.59;5101247;27;46165;-89
2022/05/01 06:30:18;;;;;;;;;15.00;12.33;;;;;14.67;42.61;102080.53;5082473;27;45742;-89
2022/05/01 06:32:44;;;;;;;;;14.33;14.00;;;;;14.38;42.34;102011.91;5100780;27;45500;-88
2022/05/01 06:35:10;;;;;;;;;18.00;17.33;;;;;14.63;42.27;102048.50;5100741;27;45463;-89
2022/05/01 06:37:37;;;;;;;;;17.67;14.33;;;;;14.90;42.18;102074.25;5081853;27;47122;-89
2022/05/01 06:40:03;;;;;;;;;17.00;14.67;;;;;14.70;42.05;102034.81;5100729;27;45369;-89
2022/05/01 06:42:30;;;;;;;;;17.67;15.00;;;;;15.12;42.14;102092.16;5082034;27;45522;-89
2022/05/01 06:44:55;;;;;;;;;15.67;15.00;;;;;15.02;42.00;102056.75;5101018;27;45438;-89
2022/05/01 06:47:21;;;;;;;;;18.67;16.00;;;;;15.23;41.91;102080.97;5100364;27;45317;-89
2022/05/01 06:49:46;;;;;;;;;24.00;17.67;;;;;15.07;41.73;102041.31;5099970;27;45308;-89
2022/05/01 06:52:11;;;;;;;;;15.67;14.33;;;;;15.13;41.73;102035.69;5082716;27;45327;-89
2022/05/01 06:54:37;;;;;;;;;20.00;16.00;;;;;15.36;41.48;102069.66;5101146;27;45246;-89
2022/05/01 06:57:02;;;;;;;;;18.33;16.33;;;;;15.61;41.15;102090.94;5081478;27;46296;-89
2022/05/01 06:59:28;;;;;;;;;17.33;15.00;;;;;15.51;41.27;102061.88;5082028;27;45390;-89
2022/05/01 07:01:53;;;;;;;;;20.33;17.33;;;;;15.71;41.33;102082.53;5100210;27;45408;-89
2022/05/01 07:04:18;;;;;;;;;23.00;16.67;;;;;15.80;41.25;102084.81;5100292;27;45453;-89
2022/05/01 07:06:45;;;;;;;;;19.33;15.67;;;;;15.67;41.14;102048.66;5099804;27;45975;-89
2022/05/01 07:09:11;;;;;;;;;13.33;11.33;;;;;15.71;40.81;102042.19;5100195;27;45439;-89
2022/05/01 07:11:36;;;;;;;;;19.00;18.00;;;;;15.83;40.97;102047.06;5099945;27;45400;-89
2022/05/01 07:14:01;;;;;;;;;21.33;21.00;;;;;15.82;40.66;102026.47;5100302;27;45518;-89
2022/05/01 07:16:27;;;;;;;;;19.33;19.33;;;;;16.06;40.90;102050.50;5099878;27;45360;-89
2022/05/01 07:18:52;;;;;;;;;20.00;18.00;;;;;16.01;40.89;102024.72;5099257;27;45450;-89
2022/05/01 07:21:18;;;;;;;;;20.00;19.00;;;;;16.10;40.55;102022.53;5100263;27;45441;-89
2022/05/01 07:23:44;;;;;;;;;23.00;18.00;;;;;16.27;40.40;102033.34;5100108;27;45409;-89
2022/05/01 07:26:09;;;;;;;;;18.67;18.33;;;;;16.52;40.08;102059.13;5099141;27;46211;-89
2022/05/01 07:28:35;;;;;;;;;19.00;18.00;;;;;16.63;39.82;102054.97;5099530;27;45392;-88
2022/05/01 07:31:02;;;;;;;;;18.67;17.67;;;;;16.75;39.63;102069.66;5099905;27;45355;-89
2022/05/01 07:33:27;;;;;;;;;16.00;16.00;;;;;16.85;39.64;102081.75;5100078;27;45480;-89
2022/05/01 07:35:53;;;;;;;;;18.33;16.67;;;;;16.54;39.13;102016.84;5099242;27;45719;-89
2022/05/01 07:38:18;;;;;;;;;22.67;20.00;;;;;16.60;39.30;102013.84;5099761;27;45340;-89
2022/05/01 07:40:43;;;;;;;;;17.33;15.33;;;;;17.03;39.16;102076.41;5099750;27;45583;-89
2022/05/01 07:43:10;;;;;;;;;17.00;16.33;;;;;17.11;39.05;102073.34;5099931;27;45552;-89
2022/05/01 07:45:35;;;;;;;;;16.00;14.67;;;;;16.87;39.00;102017.91;5099446;27;45682;-89
2022/05/01 07:48:01;;;;;;;;;18.67;18.67;;;;;16.99;38.79;102035.28;5099199;27;45550;-89
2022/05/01 07:50:27;;;;;;;;;16.67;16.00;;;;;16.97;37.91;102022.84;5099577;27;45525;-89
2022/05/01 07:52:53;;;;;;;;;13.33;13.33;;;;;17.30;38.29;102058.88;5080976;27;45492;-89
2022/05/01 07:55:18;;;;;;;;;20.00;17.00;;;;;17.41;38.49;102063.69;5099385;27;46117;-89
2022/05/01 07:57:43;;;;;;;;;16.33;13.67;;;;;17.36;37.96;102040.63;5098895;27;45422;-90
2022/05/01 08:00:09;;;;;;;;;19.00;16.33;;;;;16.85;37.39;101965.94;5099334;27;45400;-89
2022/05/01 08:04:27;;;;;;;;;15.67;14.67;;;;;17.36;37.95;102037.94;5099488;27;45551;-89
2022/05/01 08:05:23;;;;;;;;;16.00;14.67;;;;;17.46;37.55;102026.59;5099144;27;45443;-90
2022/05/01 08:07:53;;;;;;;;;18.00;12.33;;;;;17.63;37.70;102050.00;5099031;27;45474;-89
2022/05/01 08:10:19;;;;;;;;;17.33;14.00;;;;;17.73;37.26;102042.28;5099242;27;45381;-90
2022/05/01 08:12:44;;;;;;;;;18.00;15.67;;;;;17.62;37.27;102018.56;5080985;27;45668;-90
2022/05/01 08:15:10;;;;;;;;;18.67;14.33;;;;;17.90;36.74;102044.97;5098510;27;46243;-89
2022/05/01 08:17:35;;;;;;;;;17.33;13.67;;;;;17.83;36.14;102019.28;5098797;27;45328;-89
2022/05/01 08:22:44;;;;;;;;;11.67;11.67;;;;;18.15;36.39;102040.97;5099269;27;45480;-89
2022/05/01 08:25:10;;;;;;;;;12.00;12.00;;;;;18.03;36.36;101993.06;5099096;27;46591;-89
2022/05/01 08:27:35;;;;;;;;;16.67;13.00;;;;;18.47;35.51;102040.97;5099171;27;45409;-90
2022/05/01 08:30:00;;;;;;;;;13.67;12.33;;;;;18.50;35.58;102025.50;5098393;27;46890;-89
2022/05/01 08:32:26;;;;;;;;;12.33;12.33;;;;;18.72;34.71;102014.31;5099772;27;45309;-90
2022/05/01 08:34:52;;;;;;;;;12.00;12.00;;;;;18.85;34.69;101998.31;5080323;27;48087;-90
2022/05/01 08:37:18;;;;;;;;;13.67;12.33;;;;;19.17;33.71;101968.50;5097493;27;45308;-90
2022/05/01 08:39:43;;;;;;;;;10.67;10.67;;;;;19.92;33.31;102017.97;5098630;27;45296;-90
2022/05/01 08:42:09;;;;;;;;;11.33;11.33;;;;;20.52;32.99;102016.88;5099274;27;45395;-90
2022/05/01 08:44:36;;;;;;;;;11.00;11.00;;;;;21.39;31.54;102010.13;5098429;27;46161;-90
2022/05/01 08:47:14;;;;;;;;;12.00;11.00;;;;;22.04;30.86;101978.47;5098454;27;45356;-90
2022/05/01 08:49:40;;;;;;;;;12.33;12.33;;;;;23.27;29.29;102010.09;5098581;27;45498;-91
2022/05/01 08:52:08;;;;;;;;;12.33;11.00;;;;;24.09;28.94;102004.56;5080451;27;45318;-90
2022/05/01 08:54:34;;;;;;;;;14.00;12.67;;;;;24.80;27.85;101977.81;5098450;27;46090;-90
2022/05/01 08:57:00;;;;;;;;;10.67;10.67;;;;;25.65;26.52;102004.19;5079819;27;45862;-90
2022/05/01 08:59:25;;;;;;;;;13.00;12.00;;;;;26.20;25.57;101982.91;5098385;27;45384;-90
2022/05/01 09:01:52;;;;;;;;;14.33;10.00;;;;;26.98;25.42;101996.72;5098749;27;45410;-91
2022/05/01 09:04:18;;;;;;;;;9.33;9.33;;;;;27.35;23.92;101933.06;5079857;27;48107;-90
2022/05/01 09:06:44;;;;;;;;;13.00;12.33;;;;;28.24;24.17;101998.34;5098280;27;45435;-91
2022/05/01 09:09:21;;;;;;;;;6.33;6.33;;;;;28.61;23.86;101995.56;5080305;27;45456;-91
2022/05/01 09:14:36;;;;;;;;;9.33;9.33;;;;;29.18;22.47;101976.03;5097989;27;45754;-91
2022/05/01 09:17:28;;;;;;;;;15.00;11.33;;;;;29.55;22.10;101996.94;5098158;27;45416;-91
2022/05/01 09:20:05;;;;;;;;;13.33;13.33;;;;;29.69;21.80;101980.88;5092951;27;45445;-91
2022/05/01 09:22:47;;;;;;;;;11.00;9.00;;;;;29.82;21.11;101971.16;5098332;27;45717;-91
2022/05/01 09:25:17;;;;;;;;;14.00;11.33;;;;;29.95;21.61;101936.88;5098023;27;46272;-90
2022/05/01 09:27:42;;;;;;;;;19.00;16.33;;;;;30.12;20.71;101927.66;5097608;27;45480;-91
2022/05/01 09:30:16;;;;;;;;;14.00;13.00;;;;;30.61;21.20;101982.84;5098041;27;45502;-91
2022/05/01 09:32:43;;;;;;;;;9.67;9.67;;;;;30.72;20.78;101956.88;5098452;27;45365;-91
2022/05/01 09:35:26;;;;;;;;;11.00;9.00;;;;;31.27;19.63;101975.50;5079602;27;47663;-91
2022/05/01 09:38:09;;;;;;;;;11.33;10.00;;;;;31.59;19.40;101978.44;5097739;27;45358;-91
2022/05/01 09:40:34;;;;;;;;;12.33;11.00;;;;;31.42;19.72;101911.44;5079594;27;45332;-91
2022/05/01 09:43:00;;;;;;;;;14.67;11.67;;;;;31.53;19.22;101916.59;5097838;27;45416;-91
2022/05/01 09:45:32;;;;;;;;;12.00;10.33;;;;;31.98;19.18;101958.34;5097625;27;45443;-91
2022/05/01 09:47:59;;;;;;;;;11.33;10.00;;;;;31.98;18.99;101928.84;5097599;27;45465;-91
2022/05/01 09:50:42;;;;;;;;;9.67;9.67;;;;;32.37;19.17;101939.84;5097663;27;45461;-91
2022/05/01 09:53:08;;;;;;;;;13.00;13.00;;;;;32.18;18.90;101874.94;5079388;27;45339;-91
2022/05/01 09:55:33;;;;;;;;;11.00;9.67;;;;;32.62;18.64;101925.94;5097597;27;45574;-91
2022/05/01 09:58:14;;;;;;;;;8.67;8.00;;;;;32.34;18.45;101864.84;5097016;27;45453;-90
2022/05/01 10:00:44;;;;;;;;;9.00;9.00;;;;;32.50;17.85;101872.13;5098524;27;45270;-91
2022/05/01 10:03:39;;;;;;;;;10.00;10.00;;;;;32.96;17.42;101949.47;5098170;27;45582;-91
2022/05/01 10:06:07;;;;;;;;;10.67;10.67;;;;;32.69;16.97;101926.06;5095552;27;46588;-90
2022/05/01 10:08:34;;;;;;;;;8.00;8.00;;;;;32.28;17.14;101860.91;5097397;27;45324;-91
2022/05/01 10:11:00;;;;;;;;;9.33;9.33;;;;;32.46;17.24;101890.97;5096990;27;45461;-90
2022/05/01 10:13:27;;;;;;;;;8.67;8.67;;;;;32.58;17.16;101910.75;5097883;27;45263;-90
2022/05/01 10:15:54;;;;;;;;;54.33;41.00;;;;;32.57;16.88;101900.78;5097230;27;45992;-90
2022/05/01 10:18:20;;;;;;;;;14.00;12.67;;;;;32.45;17.06;101889.28;5079085;27;45984;-90
2022/05/01 10:20:47;;;;;;;;;9.00;6.67;;;;;32.41;17.03;101865.84;5079088;27;45381;-91
2022/05/01 10:23:14;;;;;;;;;9.33;8.00;;;;;32.58;16.48;101911.63;5097787;27;45430;-90
2022/05/01 10:25:51;;;;;;;;;8.00;8.00;;;;;32.18;17.01;101863.91;5096580;27;45651;-90
2022/05/01 10:28:50;;;;;;;;;8.67;8.67;;;;;32.56;16.53;101927.50;5097262;27;45405;-91
2022/05/01 10:34:49;;;;;;;;;8.67;6.33;;;;;32.32;16.97;101908.34;5097710;27;45619;-90
2022/05/01 10:37:42;;;;;;;;;5.67;5.67;;;;;32.07;17.24;101910.38;5078514;27;47268;-90
2022/05/01 10:40:07;;;;;;;;;8.33;7.33;;;;;31.70;16.76;101867.75;5097132;27;45358;-91
2022/05/01 10:42:43;;;;;;;;;7.67;7.33;;;;;31.48;17.02;101858.38;5097232;27;45375;-90
2022/05/01 10:45:23;;;;;;;;;7.67;7.67;;;;;31.57;16.49;101906.09;5097533;27;45258;-90
2022/05/01 10:47:55;;;;;;;;;6.00;6.00;;;;;30.92;17.15;101839.03;5096776;27;45442;-90
2022/05/01 10:50:26;;;;;;;;;7.00;7.00;;;;;31.30;17.31;101894.38;5096975;27;45314;-90
2022/05/01 10:53:07;;;;;;;;;7.67;5.67;;;;;31.08;17.34;101882.22;5096831;27;45526;-90
2022/05/01 10:55:42;;;;;;;;;5.33;5.33;;;;;31.08;17.46;101893.25;5078689;27;45411;-90
2022/05/01 10:58:20;;;;;;;;;6.00;6.00;;;;;31.11;17.36;101902.00;5096684;27;45593;-90
2022/05/01 11:00:46;;;;;;;;;8.67;7.33;;;;;31.10;17.23;101877.41;5097601;27;45607;-90
2022/05/01 11:03:26;;;;;;;;;9.00;8.00;;;;;30.90;17.01;101872.25;5082227;27;45366;-90
2022/05/01 11:05:55;;;;;;;;;8.00;7.33;;;;;30.59;16.75;101835.44;5100538;27;45558;-90
2022/05/01 11:08:28;;;;;;;;;7.00;7.00;;;;;30.30;16.95;101817.53;5100112;27;46500;-83
2022/05/01 11:10:56;;;;;;;;;7.33;7.33;;;;;30.29;17.75;101813.91;5081250;27;45409;-83
2022/05/01 11:13:33;;;;;;;;;8.00;7.00;;;;;30.46;17.65;101866.19;5100361;27;45398;-83
2022/05/01 11:16:00;;;;;;;;;6.00;6.00;;;;;30.27;17.00;101850.88;5082101;27;45453;-90
2022/05/01 11:18:33;;;;;;;;;6.33;6.33;;;;;30.22;17.50;101881.59;5081607;27;47440;-90
2022/05/01 11:21:20;;;;;;;;;6.00;6.00;;;;;29.95;18.08;101863.50;5084095;27;45791;-90
2022/05/01 11:23:47;;;;;;;;;9.00;9.00;;;;;29.64;18.29;101838.44;5100044;27;46225;-90
2022/05/01 11:26:14;;;;;;;;;9.33;9.33;;;;;29.66;17.90;101858.38;5100207;27;45448;-90
2022/05/01 11:28:48;;;;;;;;;6.00;6.00;;;;;29.53;18.69;101847.00;5099941;27;45484;-90
2022/05/01 11:31:35;;;;;;;;;6.67;6.33;;;;;29.53;18.54;101855.25;5099973;27;45325;-89
2022/05/01 11:34:16;;;;;;;;;5.33;5.33;;;;;29.55;18.22;101850.41;5082573;27;45348;-90
2022/05/01 11:37:05;;;;;;;;;5.67;5.67;;;;;29.50;18.65;101850.94;5100030;27;45405;-90
2022/05/01 11:39:45;;;;;;;;;6.00;6.00;;;;;29.52;18.30;101851.59;5099617;27;45412;-90
2022/05/01 11:42:22;;;;;;;;;5.67;5.67;;;;;29.55;17.64;101842.16;5099938;27;45317;-90
2022/05/01 11:44:49;;;;;;;;;5.33;4.33;;;;;29.23;17.66;101792.44;5099681;27;45357;-90